IBS15SP LEMD-GCLA
Flight info
| Callsign | IBS15SP |
|---|---|
| Flight time | N/A |
| Altitude | 33000 |
| Route | CCS DCT ELVAR DCT BEXAL UN866 KONBA |
| Aircraft | A320/M-SDE3FGHIRWY/LB1 |
Departure
| Time | N/A |
|---|---|
| Airport | Adolfo Suárez Madrid–Barajas Airport (LEMD) |
Arrival
| Time | 2026-05-01 11:57 |
|---|---|
| Airport | La Palma Airport (GCLA) |
| Time | Latitude | Longitude | Altitude | Speed | Heading |
|---|---|---|---|---|---|
| 2026-05-01 10:38 | 34.91653 | -12.35831 | 33178 ft | 423 kts | 219° |
| 2026-05-01 10:38 | 34.89239 | -12.37889 | 33176 ft | 423 kts | 219° |
| 2026-05-01 10:38 | 34.84402 | -12.42007 | 33173 ft | 424 kts | 219° |
| 2026-05-01 10:39 | 34.79550 | -12.46133 | 33171 ft | 426 kts | 219° |
| 2026-05-01 10:39 | 34.74709 | -12.50230 | 33174 ft | 427 kts | 220° |
| 2026-05-01 10:40 | 34.69824 | -12.54376 | 33172 ft | 428 kts | 220° |
| 2026-05-01 10:40 | 34.64943 | -12.58515 | 33176 ft | 430 kts | 220° |
| 2026-05-01 10:41 | 34.60017 | -12.62677 | 33172 ft | 431 kts | 220° |
| 2026-05-01 10:42 | 34.52609 | -12.68924 | 33174 ft | 433 kts | 221° |
| 2026-05-01 10:42 | 34.47680 | -12.73067 | 33176 ft | 434 kts | 221° |
| 2026-05-01 10:43 | 34.42706 | -12.77249 | 33173 ft | 435 kts | 221° |
| 2026-05-01 10:43 | 34.37720 | -12.81440 | 33176 ft | 437 kts | 221° |
| 2026-05-01 10:44 | 34.32739 | -12.85619 | 33173 ft | 438 kts | 222° |
| 2026-05-01 10:44 | 34.27710 | -12.89831 | 33178 ft | 439 kts | 222° |
| 2026-05-01 10:45 | 34.22678 | -12.94054 | 33175 ft | 440 kts | 223° |
| 2026-05-01 10:45 | 34.17684 | -12.98279 | 33178 ft | 441 kts | 223° |
| 2026-05-01 10:46 | 34.12634 | -13.02531 | 33176 ft | 442 kts | 223° |
| 2026-05-01 10:46 | 34.07583 | -13.06779 | 33180 ft | 442 kts | 223° |
| 2026-05-01 10:47 | 34.02549 | -13.11005 | 33175 ft | 443 kts | 223° |
| 2026-05-01 10:47 | 33.97480 | -13.15256 | 33179 ft | 443 kts | 223° |
| 2026-05-01 10:48 | 33.92397 | -13.19504 | 33176 ft | 444 kts | 223° |
| 2026-05-01 10:48 | 33.87337 | -13.23738 | 33183 ft | 444 kts | 223° |
| 2026-05-01 10:49 | 33.82245 | -13.27995 | 33182 ft | 444 kts | 223° |
| 2026-05-01 10:49 | 33.77185 | -13.32215 | 33186 ft | 445 kts | 223° |
| 2026-05-01 10:50 | 33.72089 | -13.36459 | 33182 ft | 445 kts | 223° |
| 2026-05-01 10:50 | 33.67010 | -13.40678 | 33182 ft | 445 kts | 223° |
| 2026-05-01 10:51 | 33.61902 | -13.44915 | 33181 ft | 446 kts | 223° |
| 2026-05-01 10:51 | 33.56780 | -13.49156 | 33183 ft | 446 kts | 223° |
| 2026-05-01 10:52 | 33.51669 | -13.53387 | 33182 ft | 446 kts | 223° |
| 2026-05-01 10:52 | 33.46584 | -13.57597 | 33185 ft | 446 kts | 223° |
| 2026-05-01 10:53 | 33.41453 | -13.61833 | 33181 ft | 447 kts | 223° |
| 2026-05-01 10:53 | 33.36357 | -13.66032 | 33184 ft | 447 kts | 223° |
| 2026-05-01 10:54 | 33.31229 | -13.70245 | 33181 ft | 447 kts | 223° |
| 2026-05-01 10:54 | 33.26092 | -13.74459 | 33183 ft | 447 kts | 223° |
| 2026-05-01 10:55 | 33.20991 | -13.78646 | 33182 ft | 447 kts | 223° |
| 2026-05-01 10:55 | 33.15853 | -13.82862 | 33186 ft | 447 kts | 223° |
| 2026-05-01 10:56 | 33.10709 | -13.87062 | 33180 ft | 447 kts | 223° |
| 2026-05-01 10:56 | 33.05586 | -13.91212 | 33187 ft | 448 kts | 223° |
| 2026-05-01 10:57 | 33.00429 | -13.95380 | 33182 ft | 448 kts | 223° |
| 2026-05-01 10:57 | 32.95278 | -13.99551 | 33185 ft | 448 kts | 223° |
| 2026-05-01 10:58 | 32.90146 | -14.03706 | 33183 ft | 448 kts | 223° |
| 2026-05-01 10:58 | 32.84992 | -14.07868 | 33186 ft | 448 kts | 223° |
| 2026-05-01 10:59 | 32.79824 | -14.12029 | 33182 ft | 448 kts | 223° |
| 2026-05-01 10:59 | 32.74654 | -14.16179 | 33185 ft | 448 kts | 223° |
| 2026-05-01 11:00 | 32.69515 | -14.20299 | 33182 ft | 448 kts | 223° |
| 2026-05-01 11:00 | 32.64346 | -14.24445 | 33186 ft | 448 kts | 223° |
| 2026-05-01 11:01 | 32.59181 | -14.28590 | 33201 ft | 448 kts | 223° |
| 2026-05-01 11:01 | 32.54031 | -14.32710 | 33197 ft | 449 kts | 223° |
| 2026-05-01 11:02 | 32.48852 | -14.36853 | 33207 ft | 448 kts | 223° |
| 2026-05-01 11:02 | 32.46291 | -14.38886 | 33199 ft | 434 kts | 223° |
| 2026-05-01 11:02 | 32.43804 | -14.40849 | 33201 ft | 427 kts | 224° |
| 2026-05-01 11:03 | 32.38895 | -14.44756 | 33201 ft | 423 kts | 224° |
| 2026-05-01 11:03 | 32.34043 | -14.48644 | 33200 ft | 422 kts | 224° |
| 2026-05-01 11:04 | 32.29173 | -14.52530 | 33203 ft | 422 kts | 224° |
| 2026-05-01 11:04 | 32.24290 | -14.56407 | 33200 ft | 422 kts | 223° |
| 2026-05-01 11:05 | 32.19438 | -14.60241 | 33192 ft | 422 kts | 223° |
| 2026-05-01 11:05 | 32.14555 | -14.64098 | 33185 ft | 421 kts | 223° |
| 2026-05-01 11:06 | 32.09676 | -14.67955 | 33182 ft | 421 kts | 223° |
| 2026-05-01 11:06 | 32.04831 | -14.71774 | 33178 ft | 421 kts | 223° |
| 2026-05-01 11:07 | 31.97551 | -14.77506 | 33172 ft | 420 kts | 223° |
| 2026-05-01 11:07 | 31.92681 | -14.81344 | 33178 ft | 420 kts | 223° |
| 2026-05-01 11:08 | 31.87851 | -14.85144 | 33170 ft | 419 kts | 223° |
| 2026-05-01 11:09 | 31.80560 | -14.90852 | 33178 ft | 419 kts | 223° |
| 2026-05-01 11:09 | 31.75732 | -14.94635 | 33178 ft | 418 kts | 222° |
| 2026-05-01 11:10 | 31.68455 | -15.00327 | 33176 ft | 418 kts | 222° |
| 2026-05-01 11:10 | 31.63646 | -15.04093 | 33174 ft | 417 kts | 222° |
| 2026-05-01 11:11 | 31.58804 | -15.07862 | 33174 ft | 417 kts | 222° |
| 2026-05-01 11:11 | 31.53964 | -15.11631 | 33177 ft | 417 kts | 222° |
| 2026-05-01 11:12 | 31.49144 | -15.15377 | 33171 ft | 416 kts | 222° |
| 2026-05-01 11:12 | 31.44311 | -15.19134 | 33178 ft | 416 kts | 222° |
| 2026-05-01 11:13 | 31.39514 | -15.22862 | 33176 ft | 416 kts | 222° |
| 2026-05-01 11:13 | 31.34684 | -15.26603 | 33174 ft | 415 kts | 222° |
| 2026-05-01 11:14 | 31.29860 | -15.30318 | 33170 ft | 416 kts | 220° |
| 2026-05-01 11:14 | 31.24842 | -15.33725 | 33173 ft | 420 kts | 217° |
| 2026-05-01 11:15 | 31.19653 | -15.36909 | 33174 ft | 421 kts | 216° |
| 2026-05-01 11:15 | 31.14506 | -15.40095 | 33174 ft | 420 kts | 216° |
| 2026-05-01 11:16 | 31.09375 | -15.43348 | 33172 ft | 419 kts | 217° |
| 2026-05-01 11:16 | 31.04246 | -15.46620 | 33173 ft | 419 kts | 217° |
| 2026-05-01 11:17 | 30.99125 | -15.49883 | 33174 ft | 419 kts | 217° |
| 2026-05-01 11:17 | 30.94035 | -15.53119 | 33176 ft | 418 kts | 216° |
| 2026-05-01 11:18 | 30.88933 | -15.56342 | 33173 ft | 418 kts | 216° |
| 2026-05-01 11:18 | 30.83804 | -15.59583 | 33173 ft | 418 kts | 216° |
| 2026-05-01 11:19 | 30.78717 | -15.62811 | 33171 ft | 418 kts | 216° |
| 2026-05-01 11:19 | 30.74469 | -15.65498 | 33172 ft | 418 kts | 216° |
| 2026-05-01 11:20 | 30.69344 | -15.68727 | 33185 ft | 417 kts | 216° |
| 2026-05-01 11:20 | 30.64253 | -15.71926 | 33184 ft | 417 kts | 216° |
| 2026-05-01 11:21 | 30.59148 | -15.75135 | 33182 ft | 417 kts | 216° |
| 2026-05-01 11:21 | 30.54042 | -15.78355 | 33182 ft | 416 kts | 216° |
| 2026-05-01 11:22 | 30.48979 | -15.81540 | 33182 ft | 416 kts | 216° |
| 2026-05-01 11:22 | 30.43876 | -15.84734 | 33176 ft | 416 kts | 216° |
| 2026-05-01 11:23 | 30.38775 | -15.87915 | 33175 ft | 416 kts | 216° |
| 2026-05-01 11:23 | 30.33699 | -15.91081 | 33174 ft | 416 kts | 216° |
| 2026-05-01 11:24 | 30.28607 | -15.94270 | 33178 ft | 416 kts | 216° |
| 2026-05-01 11:25 | 30.20950 | -15.99056 | 33178 ft | 416 kts | 215° |
| 2026-05-01 11:25 | 30.13320 | -16.03786 | 33176 ft | 416 kts | 215° |
| 2026-05-01 11:26 | 30.05713 | -16.08512 | 33176 ft | 415 kts | 215° |
| 2026-05-01 11:27 | 30.00623 | -16.11679 | 33178 ft | 415 kts | 215° |
| 2026-05-01 11:27 | 29.95525 | -16.14844 | 33012 ft | 415 kts | 214° |
| 2026-05-01 11:27 | 29.92993 | -16.16410 | 33154 ft | 412 kts | 212° |
| 2026-05-01 11:28 | 29.90455 | -16.17977 | 33203 ft | 414 kts | 212° |
| 2026-05-01 11:28 | 29.85413 | -16.21099 | 33206 ft | 413 kts | 212° |
| 2026-05-01 11:29 | 29.77818 | -16.25786 | 33206 ft | 412 kts | 211° |
| 2026-05-01 11:30 | 29.70267 | -16.30438 | 33192 ft | 411 kts | 211° |
| 2026-05-01 11:30 | 29.65223 | -16.33542 | 33185 ft | 412 kts | 211° |
| 2026-05-01 11:30 | 29.62662 | -16.35112 | 33105 ft | 423 kts | 211° |
| 2026-05-01 11:31 | 29.60046 | -16.36752 | 32847 ft | 432 kts | 214° |
| 2026-05-01 11:31 | 29.57572 | -16.38745 | 32588 ft | 433 kts | 222° |
| 2026-05-01 11:31 | 29.55236 | -16.40966 | 32336 ft | 435 kts | 222° |
| 2026-05-01 11:31 | 29.52915 | -16.43166 | 32086 ft | 437 kts | 222° |
| 2026-05-01 11:32 | 29.50561 | -16.45388 | 31841 ft | 438 kts | 221° |
| 2026-05-01 11:32 | 29.48199 | -16.47613 | 31613 ft | 439 kts | 221° |
| 2026-05-01 11:32 | 29.45836 | -16.49840 | 31358 ft | 440 kts | 221° |
| 2026-05-01 11:32 | 29.43460 | -16.52079 | 31112 ft | 441 kts | 221° |
| 2026-05-01 11:33 | 29.41080 | -16.54318 | 30872 ft | 442 kts | 221° |
| 2026-05-01 11:33 | 29.38718 | -16.56539 | 30635 ft | 443 kts | 221° |
| 2026-05-01 11:33 | 29.36335 | -16.58785 | 30400 ft | 444 kts | 221° |
| 2026-05-01 11:33 | 29.33933 | -16.61047 | 30143 ft | 445 kts | 221° |
| 2026-05-01 11:34 | 29.31531 | -16.63303 | 29868 ft | 446 kts | 221° |
| 2026-05-01 11:34 | 29.29124 | -16.65560 | 29592 ft | 447 kts | 221° |
| 2026-05-01 11:34 | 29.26735 | -16.67795 | 29326 ft | 447 kts | 221° |
| 2026-05-01 11:34 | 29.24321 | -16.70052 | 28937 ft | 447 kts | 221° |
| 2026-05-01 11:35 | 29.21897 | -16.72322 | 27801 ft | 452 kts | 221° |
| 2026-05-01 11:35 | 29.19472 | -16.74594 | 27114 ft | 447 kts | 221° |
| 2026-05-01 11:35 | 29.17072 | -16.76836 | 26397 ft | 443 kts | 221° |
| 2026-05-01 11:35 | 29.14692 | -16.79055 | 25694 ft | 439 kts | 221° |
| 2026-05-01 11:36 | 29.12358 | -16.81234 | 25018 ft | 435 kts | 221° |
| 2026-05-01 11:36 | 29.10022 | -16.83416 | 24344 ft | 432 kts | 221° |
| 2026-05-01 11:36 | 29.07689 | -16.85596 | 23655 ft | 430 kts | 221° |
| 2026-05-01 11:36 | 29.05378 | -16.87751 | 22934 ft | 426 kts | 220° |
| 2026-05-01 11:37 | 29.03115 | -16.89859 | 22322 ft | 421 kts | 220° |
| 2026-05-01 11:37 | 29.00854 | -16.91967 | 21722 ft | 416 kts | 220° |
| 2026-05-01 11:37 | 28.98617 | -16.94053 | 21137 ft | 411 kts | 220° |
| 2026-05-01 11:37 | 28.96435 | -16.96089 | 20588 ft | 407 kts | 220° |
| 2026-05-01 11:38 | 28.94250 | -16.98126 | 20042 ft | 402 kts | 220° |
| 2026-05-01 11:38 | 28.92084 | -17.00141 | 19529 ft | 398 kts | 220° |
| 2026-05-01 11:38 | 28.89966 | -17.02107 | 19019 ft | 394 kts | 220° |
| 2026-05-01 11:38 | 28.87845 | -17.04073 | 18542 ft | 389 kts | 220° |
| 2026-05-01 11:39 | 28.85748 | -17.06013 | 18013 ft | 385 kts | 220° |
| 2026-05-01 11:39 | 28.83679 | -17.07930 | 17539 ft | 380 kts | 220° |
| 2026-05-01 11:39 | 28.81637 | -17.09826 | 17068 ft | 376 kts | 220° |
| 2026-05-01 11:39 | 28.79643 | -17.11674 | 16583 ft | 373 kts | 220° |
| 2026-05-01 11:40 | 28.77628 | -17.13537 | 16106 ft | 370 kts | 220° |
| 2026-05-01 11:40 | 28.75633 | -17.15380 | 15600 ft | 368 kts | 220° |
| 2026-05-01 11:40 | 28.73645 | -17.17216 | 15104 ft | 366 kts | 220° |
| 2026-05-01 11:40 | 28.71693 | -17.19019 | 14593 ft | 365 kts | 220° |
| 2026-05-01 11:41 | 28.69718 | -17.20847 | 14073 ft | 365 kts | 220° |
| 2026-05-01 11:41 | 28.67742 | -17.22676 | 13484 ft | 364 kts | 220° |
| 2026-05-01 11:41 | 28.65773 | -17.24496 | 12936 ft | 362 kts | 220° |
| 2026-05-01 11:41 | 28.63819 | -17.26301 | 12392 ft | 360 kts | 220° |
| 2026-05-01 11:42 | 28.61899 | -17.28072 | 11838 ft | 358 kts | 220° |
| 2026-05-01 11:42 | 28.60921 | -17.28972 | 11576 ft | 357 kts | 220° |
| 2026-05-01 11:42 | 28.58992 | -17.30751 | 11044 ft | 354 kts | 220° |
| 2026-05-01 11:42 | 28.57114 | -17.32483 | 10895 ft | 340 kts | 220° |
| 2026-05-01 11:43 | 28.55337 | -17.34119 | 10785 ft | 326 kts | 220° |
| 2026-05-01 11:43 | 28.53608 | -17.35709 | 10668 ft | 314 kts | 220° |
| 2026-05-01 11:43 | 28.51938 | -17.37243 | 10546 ft | 302 kts | 220° |
| 2026-05-01 11:44 | 28.48767 | -17.40157 | 10255 ft | 283 kts | 220° |
| 2026-05-01 11:44 | 28.47259 | -17.41542 | 10147 ft | 274 kts | 220° |
| 2026-05-01 11:44 | 28.45821 | -17.42864 | 10034 ft | 264 kts | 220° |
| 2026-05-01 11:44 | 28.44415 | -17.44157 | 9892 ft | 255 kts | 220° |
| 2026-05-01 11:45 | 28.43047 | -17.45390 | 9765 ft | 247 kts | 215° |
| 2026-05-01 11:45 | 28.41462 | -17.46100 | 9636 ft | 247 kts | 188° |
| 2026-05-01 11:45 | 28.39754 | -17.45898 | 9502 ft | 251 kts | 161° |
| 2026-05-01 11:45 | 28.38303 | -17.44784 | 9378 ft | 256 kts | 132° |
| 2026-05-01 11:46 | 28.37493 | -17.42985 | 9247 ft | 261 kts | 102° |
| 2026-05-01 11:46 | 28.37548 | -17.40932 | 9123 ft | 263 kts | 72° |
| 2026-05-01 11:46 | 28.38469 | -17.39164 | 9011 ft | 262 kts | 42° |
| 2026-05-01 11:46 | 28.39869 | -17.37826 | 9015 ft | 264 kts | 38° |
| 2026-05-01 11:47 | 28.41281 | -17.36529 | 9016 ft | 264 kts | 38° |
| 2026-05-01 11:47 | 28.42715 | -17.35217 | 9017 ft | 264 kts | 38° |
| 2026-05-01 11:47 | 28.44155 | -17.33910 | 9017 ft | 264 kts | 35° |
| 2026-05-01 11:47 | 28.45805 | -17.33074 | 9015 ft | 260 kts | 6° |
| 2026-05-01 11:48 | 28.47613 | -17.33224 | 8995 ft | 274 kts | 339° |
| 2026-05-01 11:48 | 28.49268 | -17.34346 | 8875 ft | 281 kts | 311° |
| 2026-05-01 11:48 | 28.50270 | -17.36213 | 8745 ft | 278 kts | 284° |
| 2026-05-01 11:48 | 28.50402 | -17.38366 | 8622 ft | 274 kts | 257° |
| 2026-05-01 11:49 | 28.49655 | -17.40336 | 8493 ft | 273 kts | 231° |
| 2026-05-01 11:49 | 28.48218 | -17.41732 | 8371 ft | 273 kts | 212° |
| 2026-05-01 11:49 | 28.46621 | -17.42860 | 8245 ft | 274 kts | 212° |
| 2026-05-01 11:49 | 28.45072 | -17.44106 | 8121 ft | 273 kts | 224° |
| 2026-05-01 11:50 | 28.44193 | -17.45284 | 8032 ft | 272 kts | 237° |
| 2026-05-01 11:50 | 28.43417 | -17.47235 | 7957 ft | 271 kts | 254° |
| 2026-05-01 11:50 | 28.43158 | -17.49422 | 7197 ft | 289 kts | 268° |
| 2026-05-01 11:50 | 28.43137 | -17.51770 | 6335 ft | 304 kts | 268° |
| 2026-05-01 11:51 | 28.43118 | -17.54227 | 5442 ft | 316 kts | 269° |
| 2026-05-01 11:51 | 28.43098 | -17.56729 | 4571 ft | 326 kts | 269° |
| 2026-05-01 11:51 | 28.43073 | -17.59343 | 3685 ft | 334 kts | 269° |
| 2026-05-01 11:51 | 28.43047 | -17.62013 | 2857 ft | 339 kts | 269° |
| 2026-05-01 11:52 | 28.43016 | -17.64661 | 2544 ft | 327 kts | 269° |
| 2026-05-01 11:52 | 28.42983 | -17.67175 | 2417 ft | 303 kts | 269° |
| 2026-05-01 11:52 | 28.42951 | -17.69414 | 2432 ft | 270 kts | 269° |
| 2026-05-01 11:52 | 28.42921 | -17.71436 | 2433 ft | 241 kts | 269° |
| 2026-05-01 11:53 | 28.43118 | -17.73241 | 2430 ft | 227 kts | 292° |
| 2026-05-01 11:53 | 28.44063 | -17.74646 | 2440 ft | 227 kts | 325° |
| 2026-05-01 11:53 | 28.45503 | -17.75228 | 2437 ft | 216 kts | 356° |
| 2026-05-01 11:53 | 28.46973 | -17.75261 | 2439 ft | 208 kts | 359° |
| 2026-05-01 11:54 | 28.48411 | -17.75286 | 2434 ft | 205 kts | 359° |
| 2026-05-01 11:54 | 28.49814 | -17.75311 | 2433 ft | 204 kts | 359° |
| 2026-05-01 11:54 | 28.51237 | -17.75338 | 2276 ft | 208 kts | 358° |
| 2026-05-01 11:54 | 28.52693 | -17.75365 | 1998 ft | 208 kts | 359° |
| 2026-05-01 11:55 | 28.54123 | -17.75391 | 1677 ft | 203 kts | 359° |
| 2026-05-01 11:55 | 28.55521 | -17.75416 | 1389 ft | 198 kts | 359° |
| 2026-05-01 11:55 | 28.56884 | -17.75444 | 1126 ft | 193 kts | 359° |
| 2026-05-01 11:55 | 28.58209 | -17.75472 | 903 ft | 185 kts | 359° |
| 2026-05-01 11:56 | 28.59445 | -17.75497 | 637 ft | 172 kts | 359° |
| 2026-05-01 11:56 | 28.60600 | -17.75521 | 399 ft | 160 kts | 0° |
| 2026-05-01 11:56 | 28.61686 | -17.75544 | 203 ft | 152 kts | 360° |
| 2026-05-01 11:56 | 28.62629 | -17.75566 | 108 ft | 89 kts | 359° |
| 2026-05-01 11:57 | 28.62943 | -17.75567 | 97 ft | 9 kts | 15° |
| 2026-05-01 11:57 | 28.63017 | -17.75531 | 95 ft | 25 kts | 4° |
| 2026-05-01 11:57 | 28.63064 | -17.75584 | 93 ft | 2 kts | 184° |
| 2026-05-01 11:57 | 28.62970 | -17.75574 | 97 ft | 18 kts | 174° |
| 2026-05-01 11:58 | 28.62849 | -17.75565 | 100 ft | 17 kts | 179° |
| 2026-05-01 11:58 | 28.62734 | -17.75563 | 104 ft | 16 kts | 179° |
| 2026-05-01 11:58 | 28.62573 | -17.75454 | 110 ft | 13 kts | 155° |
| 2026-05-01 11:59 | 28.62482 | -17.75447 | 111 ft | 14 kts | 179° |
| 2026-05-01 11:59 | 28.62384 | -17.75447 | 113 ft | 14 kts | 179° |
| 2026-05-01 11:59 | 28.62285 | -17.75443 | 114 ft | 15 kts | 180° |
| 2026-05-01 12:00 | 28.62247 | -17.75356 | 114 ft | 0 kts | 87° |
| 2026-05-01 12:00 | 28.62247 | -17.75352 | 114 ft | 0 kts | 89° |